sensor_id;sensor_type;location;lat;lon;timestamp;temperature;humidity
10304;DHT22;5197;48.152;8.590;2022-08-21T00:01:49;14.30;28.70
10304;DHT22;5197;48.152;8.590;2022-08-21T00:04:17;14.20;28.50
10304;DHT22;5197;48.152;8.590;2022-08-21T00:06:48;14.20;29.70
10304;DHT22;5197;48.152;8.590;2022-08-21T00:09:15;14.10;30.00
10304;DHT22;5197;48.152;8.590;2022-08-21T00:11:42;14.20;30.50
10304;DHT22;5197;48.152;8.590;2022-08-21T00:14:10;14.20;30.30
10304;DHT22;5197;48.152;8.590;2022-08-21T00:16:37;14.20;30.20
10304;DHT22;5197;48.152;8.590;2022-08-21T00:19:06;14.10;30.10
10304;DHT22;5197;48.152;8.590;2022-08-21T00:21:34;14.10;30.20
10304;DHT22;5197;48.152;8.590;2022-08-21T00:24:01;14.10;30.20
10304;DHT22;5197;48.152;8.590;2022-08-21T00:26:28;14.10;30.00
10304;DHT22;5197;48.152;8.590;2022-08-21T00:28:55;14.10;30.00
10304;DHT22;5197;48.152;8.590;2022-08-21T00:31:24;14.10;30.10
10304;DHT22;5197;48.152;8.590;2022-08-21T00:33:52;14.10;30.20
10304;DHT22;5197;48.152;8.590;2022-08-21T00:36:27;14.00;29.50
10304;DHT22;5197;48.152;8.590;2022-08-21T00:38:54;13.90;29.90
10304;DHT22;5197;48.152;8.590;2022-08-21T00:41:21;13.90;30.10
10304;DHT22;5197;48.152;8.590;2022-08-21T00:44:10;13.80;30.30
10304;DHT22;5197;48.152;8.590;2022-08-21T00:46:39;13.80;30.40
10304;DHT22;5197;48.152;8.590;2022-08-21T00:49:07;13.80;30.60
10304;DHT22;5197;48.152;8.590;2022-08-21T00:54:11;13.80;30.30
10304;DHT22;5197;48.152;8.590;2022-08-21T00:56:48;13.80;30.60
10304;DHT22;5197;48.152;8.590;2022-08-21T00:59:18;13.80;30.80
10304;DHT22;5197;48.152;8.590;2022-08-21T01:01:45;13.80;30.10
10304;DHT22;5197;48.152;8.590;2022-08-21T01:04:13;13.70;29.80
10304;DHT22;5197;48.152;8.590;2022-08-21T01:06:40;13.70;29.80
10304;DHT22;5197;48.152;8.590;2022-08-21T01:09:07;13.60;29.60
10304;DHT22;5197;48.152;8.590;2022-08-21T01:11:34;13.60;29.60
10304;DHT22;5197;48.152;8.590;2022-08-21T01:14:01;13.60;29.30
10304;DHT22;5197;48.152;8.590;2022-08-21T01:16:28;13.50;28.80
10304;DHT22;5197;48.152;8.590;2022-08-21T01:18:56;14.00;29.10
10304;DHT22;5197;48.152;8.590;2022-08-21T01:21:25;13.40;28.80
10304;DHT22;5197;48.152;8.590;2022-08-21T01:23:55;13.40;28.90
10304;DHT22;5197;48.152;8.590;2022-08-21T01:26:29;13.30;29.40
10304;DHT22;5197;48.152;8.590;2022-08-21T01:31:31;13.20;31.30
10304;DHT22;5197;48.152;8.590;2022-08-21T01:33:59;13.20;30.00
10304;DHT22;5197;48.152;8.590;2022-08-21T01:36:27;13.20;29.50
10304;DHT22;5197;48.152;8.590;2022-08-21T01:38:54;13.10;29.30
10304;DHT22;5197;48.152;8.590;2022-08-21T01:41:21;13.10;29.40
10304;DHT22;5197;48.152;8.590;2022-08-21T01:43:48;13.00;29.10
10304;DHT22;5197;48.152;8.590;2022-08-21T01:46:15;13.00;29.10
10304;DHT22;5197;48.152;8.590;2022-08-21T01:48:43;12.90;29.10
10304;DHT22;5197;48.152;8.590;2022-08-21T01:51:10;12.90;29.20
10304;DHT22;5197;48.152;8.590;2022-08-21T01:53:37;12.80;29.20
10304;DHT22;5197;48.152;8.590;2022-08-21T01:56:08;12.80;29.60
10304;DHT22;5197;48.152;8.590;2022-08-21T01:58:40;12.80;29.90
10304;DHT22;5197;48.152;8.590;2022-08-21T02:01:08;12.70;29.90
10304;DHT22;5197;48.152;8.590;2022-08-21T02:03:37;12.70;30.30
10304;DHT22;5197;48.152;8.590;2022-08-21T02:06:06;12.70;30.80
10304;DHT22;5197;48.152;8.590;2022-08-21T02:08:34;12.70;31.20
10304;DHT22;5197;48.152;8.590;2022-08-21T02:11:01;12.70;31.70
10304;DHT22;5197;48.152;8.590;2022-08-21T02:13:28;12.60;31.70
10304;DHT22;5197;48.152;8.590;2022-08-21T02:15:55;12.70;32.10
10304;DHT22;5197;48.152;8.590;2022-08-21T02:18:22;12.60;32.50
10304;DHT22;5197;48.152;8.590;2022-08-21T02:20:50;12.70;32.80
10304;DHT22;5197;48.152;8.590;2022-08-21T02:23:22;12.70;32.70
10304;DHT22;5197;48.152;8.590;2022-08-21T02:26:04;12.70;32.20
10304;DHT22;5197;48.152;8.590;2022-08-21T02:28:31;12.60;31.10
10304;DHT22;5197;48.152;8.590;2022-08-21T02:30:59;12.60;31.50
10304;DHT22;5197;48.152;8.590;2022-08-21T02:33:27;12.50;31.70
10304;DHT22;5197;48.152;8.590;2022-08-21T02:35:54;12.50;33.30
10304;DHT22;5197;48.152;8.590;2022-08-21T02:38:25;12.50;32.20
10304;DHT22;5197;48.152;8.590;2022-08-21T02:40:53;12.50;32.10
10304;DHT22;5197;48.152;8.590;2022-08-21T02:43:22;12.50;32.30
10304;DHT22;5197;48.152;8.590;2022-08-21T02:45:51;12.40;32.60
10304;DHT22;5197;48.152;8.590;2022-08-21T02:48:21;12.50;33.20
10304;DHT22;5197;48.152;8.590;2022-08-21T02:53:28;12.50;33.50
10304;DHT22;5197;48.152;8.590;2022-08-21T02:55:57;12.50;33.80
10304;DHT22;5197;48.152;8.590;2022-08-21T02:58:29;12.50;33.60
10304;DHT22;5197;48.152;8.590;2022-08-21T03:00:58;12.50;33.40
10304;DHT22;5197;48.152;8.590;2022-08-21T03:03:26;12.40;33.40
10304;DHT22;5197;48.152;8.590;2022-08-21T03:05:54;12.40;32.80
10304;DHT22;5197;48.152;8.590;2022-08-21T03:08:22;12.30;32.60
10304;DHT22;5197;48.152;8.590;2022-08-21T03:10:53;12.30;32.90
10304;DHT22;5197;48.152;8.590;2022-08-21T03:13:21;12.30;33.50
10304;DHT22;5197;48.152;8.590;2022-08-21T03:15:49;12.30;33.50
10304;DHT22;5197;48.152;8.590;2022-08-21T03:18:17;12.30;33.50
10304;DHT22;5197;48.152;8.590;2022-08-21T03:20:44;12.30;33.70
10304;DHT22;5197;48.152;8.590;2022-08-21T03:23:16;12.30;33.40
10304;DHT22;5197;48.152;8.590;2022-08-21T03:25:46;12.20;33.40
10304;DHT22;5197;48.152;8.590;2022-08-21T03:28:18;12.20;33.40
10304;DHT22;5197;48.152;8.590;2022-08-21T03:30:48;12.20;33.20
10304;DHT22;5197;48.152;8.590;2022-08-21T03:33:16;12.10;33.20
10304;DHT22;5197;48.152;8.590;2022-08-21T03:35:50;12.10;33.40
10304;DHT22;5197;48.152;8.590;2022-08-21T03:38:19;12.10;33.90
10304;DHT22;5197;48.152;8.590;2022-08-21T03:40:52;12.10;34.20
10304;DHT22;5197;48.152;8.590;2022-08-21T03:43:19;12.00;34.20
10304;DHT22;5197;48.152;8.590;2022-08-21T03:45:47;12.00;34.20
10304;DHT22;5197;48.152;8.590;2022-08-21T03:48:14;12.00;34.70
10304;DHT22;5197;48.152;8.590;2022-08-21T03:50:42;12.00;34.70
10304;DHT22;5197;48.152;8.590;2022-08-21T03:53:11;12.00;34.70
10304;DHT22;5197;48.152;8.590;2022-08-21T03:55:48;12.00;34.80
10304;DHT22;5197;48.152;8.590;2022-08-21T03:58:17;12.00;34.00
10304;DHT22;5197;48.152;8.590;2022-08-21T04:00:47;11.90;33.80
10304;DHT22;5197;48.152;8.590;2022-08-21T04:03:14;11.80;34.00
10304;DHT22;5197;48.152;8.590;2022-08-21T04:05:41;11.80;34.10
10304;DHT22;5197;48.152;8.590;2022-08-21T04:08:09;11.80;34.20
10304;DHT22;5197;48.152;8.590;2022-08-21T04:10:37;11.70;34.20
10304;DHT22;5197;48.152;8.590;2022-08-21T04:13:06;11.70;34.40
10304;DHT22;5197;48.152;8.590;2022-08-21T04:15:34;11.70;33.80
10304;DHT22;5197;48.152;8.590;2022-08-21T04:18:03;11.60;33.80
10304;DHT22;5197;48.152;8.590;2022-08-21T04:20:30;11.60;33.90
10304;DHT22;5197;48.152;8.590;2022-08-21T04:22:57;11.50;34.00
10304;DHT22;5197;48.152;8.590;2022-08-21T04:25:24;11.50;33.60
10304;DHT22;5197;48.152;8.590;2022-08-21T04:27:54;11.50;33.60
10304;DHT22;5197;48.152;8.590;2022-08-21T04:30:21;11.50;33.70
10304;DHT22;5197;48.152;8.590;2022-08-21T04:32:56;11.50;33.70
10304;DHT22;5197;48.152;8.590;2022-08-21T04:35:26;11.50;34.10
10304;DHT22;5197;48.152;8.590;2022-08-21T04:37:54;11.50;34.60
10304;DHT22;5197;48.152;8.590;2022-08-21T04:40:22;11.50;34.70
10304;DHT22;5197;48.152;8.590;2022-08-21T04:42:53;11.50;34.20
10304;DHT22;5197;48.152;8.590;2022-08-21T04:45:33;11.50;33.50
10304;DHT22;5197;48.152;8.590;2022-08-21T04:48:02;11.40;32.60
10304;DHT22;5197;48.152;8.590;2022-08-21T04:50:42;11.30;33.80
10304;DHT22;5197;48.152;8.590;2022-08-21T04:53:16;11.30;34.30
10304;DHT22;5197;48.152;8.590;2022-08-21T04:55:45;11.30;34.50
10304;DHT22;5197;48.152;8.590;2022-08-21T04:58:15;11.30;34.50
10304;DHT22;5197;48.152;8.590;2022-08-21T05:00:43;11.30;34.40
10304;DHT22;5197;48.152;8.590;2022-08-21T05:03:12;11.30;34.40
10304;DHT22;5197;48.152;8.590;2022-08-21T05:05:41;11.30;34.50
10304;DHT22;5197;48.152;8.590;2022-08-21T05:08:12;11.30;34.60
10304;DHT22;5197;48.152;8.590;2022-08-21T05:10:41;11.30;36.10
10304;DHT22;5197;48.152;8.590;2022-08-21T05:13:11;11.30;35.20
10304;DHT22;5197;48.152;8.590;2022-08-21T05:15:39;11.30;35.50
10304;DHT22;5197;48.152;8.590;2022-08-21T05:18:07;11.30;36.00
10304;DHT22;5197;48.152;8.590;2022-08-21T05:20:34;11.30;36.60
10304;DHT22;5197;48.152;8.590;2022-08-21T05:23:05;11.40;37.00
10304;DHT22;5197;48.152;8.590;2022-08-21T05:25:34;11.40;37.30
10304;DHT22;5197;48.152;8.590;2022-08-21T05:28:01;11.40;37.90
10304;DHT22;5197;48.152;8.590;2022-08-21T05:30:28;11.40;38.70
10304;DHT22;5197;48.152;8.590;2022-08-21T05:32:57;11.50;39.60
10304;DHT22;5197;48.152;8.590;2022-08-21T05:35:26;11.50;40.30
10304;DHT22;5197;48.152;8.590;2022-08-21T05:37:54;11.60;40.60
10304;DHT22;5197;48.152;8.590;2022-08-21T05:40:21;11.60;41.10
10304;DHT22;5197;48.152;8.590;2022-08-21T05:42:53;11.70;41.80
10304;DHT22;5197;48.152;8.590;2022-08-21T05:45:23;11.80;42.20
10304;DHT22;5197;48.152;8.590;2022-08-21T05:48:14;11.90;42.40
10304;DHT22;5197;48.152;8.590;2022-08-21T05:50:43;11.90;42.50
10304;DHT22;5197;48.152;8.590;2022-08-21T05:53:10;12.00;43.50
10304;DHT22;5197;48.152;8.590;2022-08-21T05:55:38;12.10;43.90
10304;DHT22;5197;48.152;8.590;2022-08-21T05:58:16;12.30;44.50
10304;DHT22;5197;48.152;8.590;2022-08-21T06:00:45;12.30;45.30
10304;DHT22;5197;48.152;8.590;2022-08-21T06:03:19;10.00;44.60
10304;DHT22;5197;48.152;8.590;2022-08-21T06:05:46;12.50;49.90
10304;DHT22;5197;48.152;8.590;2022-08-21T06:08:15;12.70;48.70
10304;DHT22;5197;48.152;8.590;2022-08-21T06:10:43;12.80;48.90
10304;DHT22;5197;48.152;8.590;2022-08-21T06:13:10;12.90;50.30
10304;DHT22;5197;48.152;8.590;2022-08-21T06:15:39;13.10;54.50
10304;DHT22;5197;48.152;8.590;2022-08-21T06:18:06;13.50;60.30
10304;DHT22;5197;48.152;8.590;2022-08-21T06:20:33;13.90;60.10
10304;DHT22;5197;48.152;8.590;2022-08-21T06:23:01;14.10;58.20
10304;DHT22;5197;48.152;8.590;2022-08-21T06:25:28;15.80;60.00
10304;DHT22;5197;48.152;8.590;2022-08-21T06:28:04;14.90;57.70
10304;DHT22;5197;48.152;8.590;2022-08-21T06:30:32;15.50;55.10
10304;DHT22;5197;48.152;8.590;2022-08-21T06:32:59;15.90;51.60
10304;DHT22;5197;48.152;8.590;2022-08-21T06:35:27;16.40;47.80
10304;DHT22;5197;48.152;8.590;2022-08-21T06:37:56;16.80;44.70
10304;DHT22;5197;48.152;8.590;2022-08-21T06:40:25;17.10;40.90
10304;DHT22;5197;48.152;8.590;2022-08-21T06:42:55;17.50;37.60
10304;DHT22;5197;48.152;8.590;2022-08-21T06:45:22;17.80;33.50
10304;DHT22;5197;48.152;8.590;2022-08-21T06:47:49;18.00;30.70
10304;DHT22;5197;48.152;8.590;2022-08-21T06:50:16;18.30;28.10
10304;DHT22;5197;48.152;8.590;2022-08-21T06:52:43;18.60;26.50
10304;DHT22;5197;48.152;8.590;2022-08-21T06:55:10;18.60;21.70
10304;DHT22;5197;48.152;8.590;2022-08-21T06:57:46;18.50;19.40
10304;DHT22;5197;48.152;8.590;2022-08-21T07:00:19;18.40;19.70
10304;DHT22;5197;48.152;8.590;2022-08-21T07:02:46;18.60;18.60
10304;DHT22;5197;48.152;8.590;2022-08-21T07:05:13;18.70;16.10
10304;DHT22;5197;48.152;8.590;2022-08-21T07:07:44;18.70;14.50
10304;DHT22;5197;48.152;8.590;2022-08-21T07:10:12;18.50;13.30
10304;DHT22;5197;48.152;8.590;2022-08-21T07:12:49;18.50;13.30
10304;DHT22;5197;48.152;8.590;2022-08-21T07:15:28;18.30;13.00
10304;DHT22;5197;48.152;8.590;2022-08-21T07:18:00;18.20;12.80
10304;DHT22;5197;48.152;8.590;2022-08-21T07:20:28;18.20;12.30
10304;DHT22;5197;48.152;8.590;2022-08-21T07:23:02;18.10;11.90
10304;DHT22;5197;48.152;8.590;2022-08-21T07:25:29;18.00;12.00
10304;DHT22;5197;48.152;8.590;2022-08-21T07:27:57;18.00;12.40
10304;DHT22;5197;48.152;8.590;2022-08-21T07:30:24;18.00;12.50
10304;DHT22;5197;48.152;8.590;2022-08-21T07:32:51;18.00;12.80
10304;DHT22;5197;48.152;8.590;2022-08-21T07:35:19;18.00;11.90
10304;DHT22;5197;48.152;8.590;2022-08-21T07:37:47;18.00;12.50
10304;DHT22;5197;48.152;8.590;2022-08-21T07:40:15;17.90;13.70
10304;DHT22;5197;48.152;8.590;2022-08-21T07:42:45;18.00;14.70
10304;DHT22;5197;48.152;8.590;2022-08-21T07:45:20;18.40;15.60
10304;DHT22;5197;48.152;8.590;2022-08-21T07:47:48;18.90;15.40
10304;DHT22;5197;48.152;8.590;2022-08-21T07:50:21;19.40;14.40
10304;DHT22;5197;48.152;8.590;2022-08-21T07:52:48;19.90;12.90
10304;DHT22;5197;48.152;8.590;2022-08-21T07:55:17;20.40;11.10
10304;DHT22;5197;48.152;8.590;2022-08-21T07:57:45;20.90;8.40
10304;DHT22;5197;48.152;8.590;2022-08-21T08:00:16;21.20;7.10
10304;DHT22;5197;48.152;8.590;2022-08-21T08:02:46;21.50;5.30
10304;DHT22;5197;48.152;8.590;2022-08-21T08:05:13;21.70;5.40
10304;DHT22;5197;48.152;8.590;2022-08-21T08:07:41;22.00;5.60
10304;DHT22;5197;48.152;8.590;2022-08-21T08:10:09;22.30;3.40
10304;DHT22;5197;48.152;8.590;2022-08-21T08:12:39;22.60;1.90
10304;DHT22;5197;48.152;8.590;2022-08-21T08:15:09;22.90;1.00
10304;DHT22;5197;48.152;8.590;2022-08-21T08:17:36;23.10;1.00
10304;DHT22;5197;48.152;8.590;2022-08-21T08:20:09;23.40;1.00
10304;DHT22;5197;48.152;8.590;2022-08-21T08:22:39;23.50;1.00
10304;DHT22;5197;48.152;8.590;2022-08-21T08:25:07;23.70;1.00
10304;DHT22;5197;48.152;8.590;2022-08-21T08:27:37;23.70;1.00
10304;DHT22;5197;48.152;8.590;2022-08-21T08:30:07;23.90;1.00
10304;DHT22;5197;48.152;8.590;2022-08-21T08:32:35;24.00;1.00
10304;DHT22;5197;48.152;8.590;2022-08-21T08:35:03;24.00;1.00
10304;DHT22;5197;48.152;8.590;2022-08-21T08:37:30;24.10;1.00
10304;DHT22;5197;48.152;8.590;2022-08-21T08:40:00;24.00;1.00
10304;DHT22;5197;48.152;8.590;2022-08-21T08:42:33;23.70;1.00
10304;DHT22;5197;48.152;8.590;2022-08-21T08:47:37;23.20;1.00
10304;DHT22;5197;48.152;8.590;2022-08-21T08:50:11;23.10;1.00
10304;DHT22;5197;48.152;8.590;2022-08-21T08:53:04;23.00;1.00
10304;DHT22;5197;48.152;8.590;2022-08-21T08:58:04;22.90;1.00
10304;DHT22;5197;48.152;8.590;2022-08-21T09:00:32;22.90;1.00
10304;DHT22;5197;48.152;8.590;2022-08-21T09:03:01;22.90;1.00
10304;DHT22;5197;48.152;8.590;2022-08-21T09:05:42;22.90;1.00
10304;DHT22;5197;48.152;8.590;2022-08-21T09:11:03;22.50;1.00
10304;DHT22;5197;48.152;8.590;2022-08-21T09:14:02;22.20;1.00
10304;DHT22;5197;48.152;8.590;2022-08-21T09:19:43;21.90;1.00
10304;DHT22;5197;48.152;8.590;2022-08-21T09:22:33;21.90;1.00
10304;DHT22;5197;48.152;8.590;2022-08-21T09:25:20;22.00;1.00
10304;DHT22;5197;48.152;8.590;2022-08-21T09:27:50;22.10;1.00
10304;DHT22;5197;48.152;8.590;2022-08-21T09:30:18;21.90;1.00
10304;DHT22;5197;48.152;8.590;2022-08-21T09:32:46;21.90;1.00
10304;DHT22;5197;48.152;8.590;2022-08-21T09:35:16;22.00;1.00
10304;DHT22;5197;48.152;8.590;2022-08-21T09:38:03;22.10;1.00
10304;DHT22;5197;48.152;8.590;2022-08-21T09:43:03;22.30;1.00
10304;DHT22;5197;48.152;8.590;2022-08-21T09:45:32;22.30;1.00
10304;DHT22;5197;48.152;8.590;2022-08-21T09:48:12;22.20;1.00
10304;DHT22;5197;48.152;8.590;2022-08-21T09:50:41;22.00;1.00
10304;DHT22;5197;48.152;8.590;2022-08-21T09:53:21;22.00;1.00
10304;DHT22;5197;48.152;8.590;2022-08-21T09:55:56;22.10;1.00
10304;DHT22;5197;48.152;8.590;2022-08-21T09:58:45;22.10;1.00
10304;DHT22;5197;48.152;8.590;2022-08-21T10:01:21;22.10;1.00
10304;DHT22;5197;48.152;8.590;2022-08-21T10:04:04;22.00;1.00
10304;DHT22;5197;48.152;8.590;2022-08-21T10:06:32;22.00;1.00
10304;DHT22;5197;48.152;8.590;2022-08-21T10:09:14;22.00;1.00
10304;DHT22;5197;48.152;8.590;2022-08-21T10:15:02;22.40;1.00
10304;DHT22;5197;48.152;8.590;2022-08-21T10:20:40;22.10;1.00
10304;DHT22;5197;48.152;8.590;2022-08-21T10:31:54;21.70;1.00
10304;DHT22;5197;48.152;8.590;2022-08-21T10:51:20;22.50;1.00
10304;DHT22;5197;48.152;8.590;2022-08-21T10:54:18;22.60;1.00
10304;DHT22;5197;48.152;8.590;2022-08-21T10:56:52;22.80;1.00
10304;DHT22;5197;48.152;8.590;2022-08-21T10:59:36;22.90;1.00
10304;DHT22;5197;48.152;8.590;2022-08-21T11:02:33;23.00;1.00
10304;DHT22;5197;48.152;8.590;2022-08-21T11:05:28;23.10;1.00
10304;DHT22;5197;48.152;8.590;2022-08-21T11:08:30;23.20;1.00
10304;DHT22;5197;48.152;8.590;2022-08-21T11:14:03;22.90;1.00
10304;DHT22;5197;48.152;8.590;2022-08-21T11:16:49;22.80;1.00
10304;DHT22;5197;48.152;8.590;2022-08-21T11:19:32;22.80;1.00
10304;DHT22;5197;48.152;8.590;2022-08-21T11:22:28;22.90;1.00
10304;DHT22;5197;48.152;8.590;2022-08-21T11:25:19;23.00;1.00
10304;DHT22;5197;48.152;8.590;2022-08-21T11:28:09;23.10;1.00
10304;DHT22;5197;48.152;8.590;2022-08-21T11:39:26;23.40;1.00
10304;DHT22;5197;48.152;8.590;2022-08-21T11:42:19;23.60;1.00
10304;DHT22;5197;48.152;8.590;2022-08-21T11:47:57;23.60;1.00
10304;DHT22;5197;48.152;8.590;2022-08-21T11:50:30;23.50;1.00
10304;DHT22;5197;48.152;8.590;2022-08-21T11:53:09;23.40;1.00
10304;DHT22;5197;48.152;8.590;2022-08-21T11:58:32;23.50;1.00
10304;DHT22;5197;48.152;8.590;2022-08-21T12:01:31;23.50;1.00
10304;DHT22;5197;48.152;8.590;2022-08-21T12:04:09;23.70;1.00
10304;DHT22;5197;48.152;8.590;2022-08-21T12:06:40;23.70;1.00
10304;DHT22;5197;48.152;8.590;2022-08-21T12:12:04;23.90;1.00
10304;DHT22;5197;48.152;8.590;2022-08-21T12:14:45;23.90;1.00
10304;DHT22;5197;48.152;8.590;2022-08-21T12:17:24;23.80;1.00
10304;DHT22;5197;48.152;8.590;2022-08-21T12:19:59;23.90;1.00
10304;DHT22;5197;48.152;8.590;2022-08-21T12:22:40;24.00;1.00
10304;DHT22;5197;48.152;8.590;2022-08-21T12:25:11;24.70;1.00
10304;DHT22;5197;48.152;8.590;2022-08-21T12:27:45;23.90;1.00
10304;DHT22;5197;48.152;8.590;2022-08-21T12:30:40;23.90;1.00
10304;DHT22;5197;48.152;8.590;2022-08-21T12:33:26;23.90;1.00
10304;DHT22;5197;48.152;8.590;2022-08-21T12:36:06;24.00;1.00
10304;DHT22;5197;48.152;8.590;2022-08-21T12:41:30;24.40;1.00
10304;DHT22;5197;48.152;8.590;2022-08-21T12:44:12;24.70;1.00
10304;DHT22;5197;48.152;8.590;2022-08-21T12:46:47;24.80;1.00
10304;DHT22;5197;48.152;8.590;2022-08-21T12:52:21;24.80;1.00
10304;DHT22;5197;48.152;8.590;2022-08-21T12:54:48;25.00;1.00
10304;DHT22;5197;48.152;8.590;2022-08-21T12:57:25;25.20;1.00
10304;DHT22;5197;48.152;8.590;2022-08-21T12:59:57;25.40;1.00
10304;DHT22;5197;48.152;8.590;2022-08-21T13:02:29;25.40;1.00
10304;DHT22;5197;48.152;8.590;2022-08-21T13:04:58;25.50;1.00
10304;DHT22;5197;48.152;8.590;2022-08-21T13:07:34;25.50;1.00
10304;DHT22;5197;48.152;8.590;2022-08-21T13:10:19;25.60;1.00
10304;DHT22;5197;48.152;8.590;2022-08-21T13:12:47;25.70;1.00
10304;DHT22;5197;48.152;8.590;2022-08-21T13:15:23;25.70;1.00
10304;DHT22;5197;48.152;8.590;2022-08-21T13:17:59;25.80;1.00
10304;DHT22;5197;48.152;8.590;2022-08-21T13:20:32;25.80;1.00
10304;DHT22;5197;48.152;8.590;2022-08-21T13:23:03;25.90;1.00
10304;DHT22;5197;48.152;8.590;2022-08-21T13:25:34;26.00;1.00
10304;DHT22;5197;48.152;8.590;2022-08-21T13:28:08;26.00;1.00
10304;DHT22;5197;48.152;8.590;2022-08-21T13:30:46;26.20;1.00
10304;DHT22;5197;48.152;8.590;2022-08-21T13:33:15;26.30;1.00
10304;DHT22;5197;48.152;8.590;2022-08-21T13:36:07;26.40;1.00
10304;DHT22;5197;48.152;8.590;2022-08-21T13:38:37;26.50;1.00
10304;DHT22;5197;48.152;8.590;2022-08-21T13:43:51;26.50;1.00
10304;DHT22;5197;48.152;8.590;2022-08-21T13:46:26;26.60;1.00
10304;DHT22;5197;48.152;8.590;2022-08-21T13:48:55;26.70;1.00
10304;DHT22;5197;48.152;8.590;2022-08-21T13:51:23;26.80;1.00
10304;DHT22;5197;48.152;8.590;2022-08-21T13:53:52;26.90;1.00
10304;DHT22;5197;48.152;8.590;2022-08-21T13:56:29;27.00;1.00
10304;DHT22;5197;48.152;8.590;2022-08-21T13:58:59;27.10;1.00
10304;DHT22;5197;48.152;8.590;2022-08-21T14:04:03;27.20;1.00
10304;DHT22;5197;48.152;8.590;2022-08-21T14:06:36;27.30;1.00
10304;DHT22;5197;48.152;8.590;2022-08-21T14:09:10;27.30;1.00
10304;DHT22;5197;48.152;8.590;2022-08-21T14:11:38;27.30;1.00
10304;DHT22;5197;48.152;8.590;2022-08-21T14:14:24;27.40;1.00
10304;DHT22;5197;48.152;8.590;2022-08-21T14:16:58;27.40;1.00
10304;DHT22;5197;48.152;8.590;2022-08-21T14:19:46;27.50;1.00
10304;DHT22;5197;48.152;8.590;2022-08-21T14:22:38;27.50;1.00
10304;DHT22;5197;48.152;8.590;2022-08-21T14:25:10;27.60;1.00
10304;DHT22;5197;48.152;8.590;2022-08-21T14:30:37;27.70;1.00
10304;DHT22;5197;48.152;8.590;2022-08-21T14:33:09;27.70;1.00
10304;DHT22;5197;48.152;8.590;2022-08-21T14:35:37;27.70;1.00
10304;DHT22;5197;48.152;8.590;2022-08-21T14:38:15;27.70;1.00
10304;DHT22;5197;48.152;8.590;2022-08-21T14:40:44;27.60;1.00
10304;DHT22;5197;48.152;8.590;2022-08-21T14:43:12;27.20;1.00
10304;DHT22;5197;48.152;8.590;2022-08-21T14:45:39;26.90;1.00
10304;DHT22;5197;48.152;8.590;2022-08-21T14:48:07;26.80;1.00
10304;DHT22;5197;48.152;8.590;2022-08-21T14:50:35;26.40;1.00
10304;DHT22;5197;48.152;8.590;2022-08-21T14:53:02;26.20;1.00
10304;DHT22;5197;48.152;8.590;2022-08-21T14:55:38;25.90;1.00
10304;DHT22;5197;48.152;8.590;2022-08-21T14:58:25;25.80;1.00
10304;DHT22;5197;48.152;8.590;2022-08-21T15:00:53;25.80;1.00
10304;DHT22;5197;48.152;8.590;2022-08-21T15:03:21;25.80;1.00
10304;DHT22;5197;48.152;8.590;2022-08-21T15:05:49;26.10;1.00
10304;DHT22;5197;48.152;8.590;2022-08-21T15:08:17;26.30;1.00
10304;DHT22;5197;48.152;8.590;2022-08-21T15:10:45;26.60;1.00
10304;DHT22;5197;48.152;8.590;2022-08-21T15:13:32;26.70;1.00
10304;DHT22;5197;48.152;8.590;2022-08-21T15:16:00;27.00;1.00
10304;DHT22;5197;48.152;8.590;2022-08-21T15:18:29;27.10;1.00
10304;DHT22;5197;48.152;8.590;2022-08-21T15:20:56;27.30;1.00
10304;DHT22;5197;48.152;8.590;2022-08-21T15:23:24;27.20;1.00
10304;DHT22;5197;48.152;8.590;2022-08-21T15:25:52;27.00;1.00
10304;DHT22;5197;48.152;8.590;2022-08-21T15:28:20;26.80;1.00
10304;DHT22;5197;48.152;8.590;2022-08-21T15:30:50;26.40;1.00
10304;DHT22;5197;48.152;8.590;2022-08-21T15:33:18;26.20;1.00
10304;DHT22;5197;48.152;8.590;2022-08-21T15:35:45;26.10;1.00
10304;DHT22;5197;48.152;8.590;2022-08-21T15:38:14;26.10;1.00
10304;DHT22;5197;48.152;8.590;2022-08-21T15:40:42;26.10;1.00
10304;DHT22;5197;48.152;8.590;2022-08-21T15:43:35;26.20;1.00
10304;DHT22;5197;48.152;8.590;2022-08-21T15:46:03;26.40;1.00
10304;DHT22;5197;48.152;8.590;2022-08-21T15:48:33;26.20;1.00
10304;DHT22;5197;48.152;8.590;2022-08-21T15:51:00;26.20;1.00
10304;DHT22;5197;48.152;8.590;2022-08-21T15:53:27;26.20;1.00
10304;DHT22;5197;48.152;8.590;2022-08-21T15:55:54;26.40;1.00
10304;DHT22;5197;48.152;8.590;2022-08-21T15:58:22;26.70;1.00
10304;DHT22;5197;48.152;8.590;2022-08-21T16:00:52;26.90;1.00
10304;DHT22;5197;48.152;8.590;2022-08-21T16:03:20;27.10;1.00
10304;DHT22;5197;48.152;8.590;2022-08-21T16:05:48;27.20;1.00
10304;DHT22;5197;48.152;8.590;2022-08-21T16:08:20;27.30;1.00
10304;DHT22;5197;48.152;8.590;2022-08-21T16:10:47;27.20;1.00
10304;DHT22;5197;48.152;8.590;2022-08-21T16:13:27;27.10;1.00
10304;DHT22;5197;48.152;8.590;2022-08-21T16:15:55;26.90;1.00
10304;DHT22;5197;48.152;8.590;2022-08-21T16:18:22;26.70;1.00
10304;DHT22;5197;48.152;8.590;2022-08-21T16:20:50;26.60;1.00
10304;DHT22;5197;48.152;8.590;2022-08-21T16:23:17;26.70;1.00
10304;DHT22;5197;48.152;8.590;2022-08-21T16:25:44;26.80;1.00
10304;DHT22;5197;48.152;8.590;2022-08-21T16:28:14;26.70;1.00
10304;DHT22;5197;48.152;8.590;2022-08-21T16:30:44;26.60;1.00
10304;DHT22;5197;48.152;8.590;2022-08-21T16:33:32;26.60;1.00
10304;DHT22;5197;48.152;8.590;2022-08-21T16:35:59;26.50;1.00
10304;DHT22;5197;48.152;8.590;2022-08-21T16:38:28;26.50;1.00
10304;DHT22;5197;48.152;8.590;2022-08-21T16:40:55;26.70;1.00
10304;DHT22;5197;48.152;8.590;2022-08-21T16:43:25;26.80;1.00
10304;DHT22;5197;48.152;8.590;2022-08-21T16:45:53;26.80;1.00
10304;DHT22;5197;48.152;8.590;2022-08-21T16:48:20;26.70;1.00
10304;DHT22;5197;48.152;8.590;2022-08-21T16:50:48;26.50;1.00
10304;DHT22;5197;48.152;8.590;2022-08-21T16:53:17;26.40;1.00
10304;DHT22;5197;48.152;8.590;2022-08-21T16:55:45;26.30;1.00
10304;DHT22;5197;48.152;8.590;2022-08-21T16:58:39;26.20;1.00
10304;DHT22;5197;48.152;8.590;2022-08-21T17:01:17;26.20;1.00
10304;DHT22;5197;48.152;8.590;2022-08-21T17:03:47;26.20;1.00
10304;DHT22;5197;48.152;8.590;2022-08-21T17:06:15;26.30;1.00
10304;DHT22;5197;48.152;8.590;2022-08-21T17:08:42;26.20;1.00
10304;DHT22;5197;48.152;8.590;2022-08-21T17:11:42;26.20;1.00
10304;DHT22;5197;48.152;8.590;2022-08-21T17:14:20;26.10;1.00
10304;DHT22;5197;48.152;8.590;2022-08-21T17:16:51;26.10;1.00
10304;DHT22;5197;48.152;8.590;2022-08-21T17:19:20;26.00;1.00
10304;DHT22;5197;48.152;8.590;2022-08-21T17:21:48;26.00;1.00
10304;DHT22;5197;48.152;8.590;2022-08-21T17:24:15;25.80;1.00
10304;DHT22;5197;48.152;8.590;2022-08-21T17:26:43;25.80;1.00
10304;DHT22;5197;48.152;8.590;2022-08-21T17:29:12;25.60;1.00
10304;DHT22;5197;48.152;8.590;2022-08-21T17:31:42;25.40;1.00
10304;DHT22;5197;48.152;8.590;2022-08-21T17:34:11;25.20;1.00
10304;DHT22;5197;48.152;8.590;2022-08-21T17:36:39;25.10;1.00
10304;DHT22;5197;48.152;8.590;2022-08-21T17:39:06;24.90;1.00
10304;DHT22;5197;48.152;8.590;2022-08-21T17:41:33;24.70;1.00
10304;DHT22;5197;48.152;8.590;2022-08-21T17:44:05;24.40;1.00
10304;DHT22;5197;48.152;8.590;2022-08-21T17:46:35;24.30;1.00
10304;DHT22;5197;48.152;8.590;2022-08-21T17:49:07;24.10;1.00
10304;DHT22;5197;48.152;8.590;2022-08-21T17:51:34;24.00;1.00